D/T METAR WX W/DIR W/SPE G/SPE TEMP DEWP
19/03/19 02:50 EGDY 190250Z 21002KT 9999 SCT014 BKN030 06/06 Q1026 GRN SSW (210°) 2.3mph 6°C 6°C
19/03/19 01:50 EGDY 190150Z 20001KT 9999 SCT014 BKN020 06/06 Q1025 GRN SSW (200°) 1.2mph 6°C 6°C
19/03/19 00:50 EGDY 190050Z 14003KT 9999 BKN012 06/06 Q1025 GRN SE (140°) 3.5mph 6°C 6°C
18/03/19 23:50 EGDY 182350Z 15002KT 9999 SCT012 BKN030 05/05 Q1025 GRN SSE (150°) 2.3mph 5°C 5°C
18/03/19 22:50 EGDY 182250Z 18002KT 9999 SCT010 06/05 Q1025 GRN S (180°) 2.3mph 6°C 5°C
18/03/19 21:50 EGDY 182150Z 26004KT 9999 SCT010 BKN030 07/06 Q1025 GRN NOSIG W (260°) 4.6mph 7°C 6°C
18/03/19 20:50 EGDY 182050Z 29003KT 9999 FEW006 BKN010 07/07 Q1024 GRN NOSIG WNW (290°) 3.5mph 7°C 7°C
18/03/19 19:50 EGDY 181950Z 27008KT 9999 FEW006 SCT010 BKN030 08/07 Q1024 GRN TEMPO 3500 RADZ SCT006 YLO1 W (270°) 9.2mph 8°C 7°C
18/03/19 18:50 EGDY 181850Z 28008KT 7000 HZ FEW006 SCT010 BKN030 08/07 Q1023 GRN TEMPO 3500 RADZ SCT006 YLO1 HZ W (280°) 9.2mph 8°C 7°C
18/03/19 18:37 EGDY 181837Z 30006KT 7000 HZ FEW006 SCT012 BKN030 08/07 Q1023 GRN TEMPO 3500 RADZ SCT006 YLO1 HZ WNW (300°) 6.9mph 8°C 7°C
18/03/19 18:09 EGDY 181809Z 30008KT 3000 -RADZ FEW006 SCT013 BKN030 08/07 Q1023 YLO1 TEMPO 4000 -RADZ FEW006 SCT012 GRN -RA -DZ WNW (300°) 9.2mph 8°C 7°C
18/03/19 16:50 EGDY 181650Z 31010KT 9999 FEW012 BKN020 09/06 Q1022 WHT TEMPO 7000 -RA SCT012 GRN NW (310°) 11.5mph 9°C 6°C
18/03/19 15:50 EGDY 181550Z 27008KT 9999 FEW012 SCT022 09/06 Q1022 WHT TEMPO 7000 SHRA SCT012 GRN W (270°) 9.2mph 9°C 6°C
18/03/19 14:50 EGDY 181450Z 28009KT 9999 -RA FEW012 SCT022 BKN045 09/06 Q1022 WHT TEMPO 7000 SHRA SCT012 GRN -RA W (280°) 10.4mph 9°C 6°C
18/03/19 13:50 EGDY 181350Z 30010KT 9999 FEW012 SCT022 BKN045 09/06 Q1022 WHT TEMPO 7000 SHRA SCT012 GRN WNW (300°) 11.5mph 9°C 6°C
18/03/19 12:50 EGDY 181250Z 27008KT 9999 -RA FEW012 SCT022 BKN050 09/06 Q1022 WHT TEMPO 7000 SHRA SCT012 GRN -RA W (270°) 9.2mph 9°C 6°C
18/03/19 11:50 EGDY 181150Z 28009KT 9999 -RA FEW012 BKN022 08/06 Q1022 WHT TEMPO SCT025 BLU -RA W (280°) 10.4mph 8°C 6°C
18/03/19 10:50 EGDY 181050Z 27008KT 9999 -RA FEW012 SCT020 BKN100 08/05 Q1023 WHT TEMPO SCT025 BLU -RA W (270°) 9.2mph 8°C 5°C
18/03/19 09:50 EGDY 180950Z 28011KT 9999 -SHRA FEW016 SCT020 BKN100 09/05 Q1022 WHT NOSIG -SHRA W (280°) 12.7mph 9°C 5°C
18/03/19 08:50 EGDY 180850Z 26007KT 9999 FEW016 SCT120 08/05 Q1022 BLU TEMPO SCT020 WHT W (260°) 8.1mph 8°C 5°C
18/03/19 07:50 EGDY 180750Z 25006KT 9999 FEW016 BKN120 07/05 Q1021 BLU TEMPO SCT020 WHT WSW (250°) 6.9mph 7°C 5°C
18/03/19 06:50 EGDY 180650Z 26006KT 9999 FEW016 BKN120 06/04 Q1021 BLU TEMPO SCT020 WHT W (260°) 6.9mph 6°C 4°C
18/03/19 05:50 EGDY 180550Z 20001KT 9999 FEW020 BKN120 05/04 Q1020 BLU SSW (200°) 1.2mph 5°C 4°C
18/03/19 04:50 EGDY 180450Z 27007KT 9999 FEW030 SCT120 06/04 Q1020 BLU W (270°) 8.1mph 6°C 4°C
18/03/19 03:50 EGDY 180350Z AUTO 27008KT 9999 BKN140/// 06/04 Q1020 W (270°) 9.2mph 6°C 4°C
18/03/19 02:50 EGDY 180250Z 25007KT 9999 FEW030 SCT050 06/03 Q1019 BLU WSW (250°) 8.1mph 6°C 3°C
18/03/19 01:50 EGDY 180150Z 26007KT CAVOK 06/04 Q1019 BLU W (260°) 8.1mph 6°C 4°C
18/03/19 00:50 EGDY 180050Z AUTO 27002KT 9999 NCD 06/04 Q1018 W (270°) 2.3mph 6°C 4°C
17/03/19 23:50 EGDY 172350Z AUTO 31013KT 9999 NCD 07/04 Q1017 NW (310°) 15.0mph 7°C 4°C
17/03/19 22:50 EGDY 172250Z AUTO 31011KT 9999 NCD 07/05 Q1017 NW (310°) 12.7mph 7°C 5°C
17/03/19 21:50 EGDY 172150Z AUTO 31011KT 9999 NCD 07/05 Q1016 NW (310°) 12.7mph 7°C 5°C
17/03/19 20:50 EGDY 172050Z AUTO 26003KT 9999 FEW033/// 04/03 Q1015 W (260°) 3.5mph 4°C 3°C
17/03/19 19:50 EGDY 171950Z AUTO 30007KT 9999 FEW033/// 06/03 Q1014 WNW (300°) 8.1mph 6°C 3°C
17/03/19 18:50 EGDY 171850Z AUTO 28013G23KT 9999 FEW022/// BKN050/// 07/05 Q1012 RERA W (280°) 15.0mph 26.5mph 7°C 5°C
17/03/19 17:50 EGDY 171750Z AUTO 25007KT 9000 RA FEW025/// SCT030/// 06/04 Q1011 RA WSW (250°) 8.1mph 6°C 4°C
17/03/19 16:50 EGDY 171650Z AUTO 27017KT 9999 FEW013/// SCT027/// 07/04 Q1011 RERA W (270°) 19.6mph 7°C 4°C
17/03/19 15:50 EGDY 171550Z AUTO 29016KT 9999 BKN045/// 09/01 Q1010 RERA WNW (290°) 18.4mph 9°C 1°C
17/03/19 14:50 EGDY 171450Z AUTO 29020KT 9999 FEW050/// 09/M00 Q1010 WNW (290°) 23.0mph 9°C 0°C
17/03/19 13:50 EGDY 171350Z AUTO 27022KT 9999 SCT048/// 09/M01 Q1009 W (270°) 25.3mph 9°C -1°C
17/03/19 12:50 EGDY 171250Z AUTO 29012KT 9999 FEW050/// 08/01 Q1009 RERA WNW (290°) 13.8mph 8°C 1°C
17/03/19 11:50 EGDY 171150Z AUTO 29018KT 9999 FEW040/// BKN046/// 09/01 Q1008 WNW (290°) 20.7mph 9°C 1°C
17/03/19 10:50 EGDY 171050Z AUTO 29018KT 9999 FEW060/// 08/03 Q1007 RERA WNW (290°) 20.7mph 8°C 3°C
17/03/19 09:50 EGDY 170950Z AUTO 27018KT 9999 FEW060/// 07/03 Q1007 W (270°) 20.7mph 7°C 3°C
17/03/19 08:50 EGDY 170850Z AUTO 26010KT 9999 NCD 06/03 Q1006 RERA W (260°) 11.5mph 6°C 3°C
17/03/19 07:50 EGDY 170750Z AUTO 26010KT 9999 BKN050/// 04/03 Q1005 RERA W (260°) 11.5mph 4°C 3°C
17/03/19 06:50 EGDY 170650Z AUTO 24009KT 9999 BKN050/// 03/02 Q1004 RERA WSW (240°) 10.4mph 3°C 2°C
17/03/19 05:50 EGDY 170550Z AUTO 26012KT 9999 RA SCT017/// SCT050/// 03/02 Q1003 RA W (260°) 13.8mph 3°C 2°C
17/03/19 04:50 EGDY 170450Z AUTO 26015KT 9999 -RA FEW023/// BKN044/// 04/02 Q1003 -RA W (260°) 17.3mph 4°C 2°C
17/03/19 03:50 EGDY 170350Z AUTO 27016KT 9999 RA FEW025/// BKN044/// 04/02 Q1002 RA W (270°) 18.4mph 4°C 2°C
17/03/19 02:50 EGDY 170250Z AUTO 26009KT 9999 FEW028/// 04/02 Q1001 RERA W (260°) 10.4mph 4°C 2°C
17/03/19 01:50 EGDY 170150Z AUTO 26007KT 9999 SCT026/// 05/03 Q1000 RERA W (260°) 8.1mph 5°C 3°C
17/03/19 00:50 EGDY 170050Z AUTO 25008KT 9999 FEW026/// 05/03 Q1000 WSW (250°) 9.2mph 5°C 3°C
16/03/19 23:50 EGDY 162350Z AUTO 25010KT 9999 FEW029/// 06/04 Q0999 WSW (250°) 11.5mph 6°C 4°C
16/03/19 22:50 EGDY 162250Z AUTO 26010KT 9999 FEW070/// 07/05 Q0998 W (260°) 11.5mph 7°C 5°C
16/03/19 21:50 EGDY 162150Z AUTO 25009KT 9999 BKN039/// SCT120/// 07/05 Q0998 RERA WSW (250°) 10.4mph 7°C 5°C
16/03/19 20:50 EGDY 162050Z AUTO 26011KT 9999 SCT020/// BKN050/// 09/07 Q0997 RERA W (260°) 12.7mph 9°C 7°C
16/03/19 19:50 EGDY 161950Z AUTO 25009KT 9999 -RA BKN042/// 09/07 Q0997 -RA WSW (250°) 10.4mph 9°C 7°C
16/03/19 18:50 EGDY 161850Z AUTO 22018KT 8000 RA SCT012/// SCT022/// 10/09 Q0996 RA SW (220°) 20.7mph 10°C 9°C
16/03/19 17:50 EGDY 161750Z AUTO 21018KT 9999 OVC012/// 10/08 Q0997 RERA SSW (210°) 20.7mph 10°C 8°C
16/03/19 16:50 EGDY 161650Z AUTO 21020G34KT 4300 HZ BKN016/// BKN023/// 11/08 Q0998 HZ SSW (210°) 23.0mph 39.1mph 11°C 8°C
16/03/19 15:50 EGDY 161550Z AUTO 22022G34KT 9999 BKN017/// BKN024/// 11/07 Q0999 SW (220°) 25.3mph 39.1mph 11°C 7°C
16/03/19 14:50 EGDY 161450Z AUTO 22023G33KT 9999 BKN020/// 11/07 Q1000 SW (220°) 26.5mph 38.0mph 11°C 7°C
16/03/19 13:50 EGDY 161350Z AUTO 22027G39KT 9999 FEW021/// BKN030/// 12/08 Q1000 SW (220°) 31.1mph 44.9mph 12°C 8°C
16/03/19 12:50 EGDY 161250Z AUTO 23018KT 9999 OVC026/// 12/07 Q1002 SW (230°) 20.7mph 12°C 7°C
16/03/19 11:50 EGDY 161150Z AUTO 23016G27KT 9999 BKN027/// 12/07 Q1003 SW (230°) 18.4mph 31.1mph 12°C 7°C
16/03/19 10:50 EGDY 161050Z AUTO 23019G29KT 9999 BKN023/// 11/07 Q1004 SW (230°) 21.9mph 33.4mph 11°C 7°C
16/03/19 09:50 EGDY 160950Z AUTO 23014KT 9999 OVC023/// 11/07 Q1004 SW (230°) 16.1mph 11°C 7°C
16/03/19 08:50 EGDY 160850Z AUTO 24017G31KT 9999 FEW019/// BKN029/// 11/06 Q1005 WSW (240°) 19.6mph 35.7mph 11°C 6°C
16/03/19 07:50 EGDY 160750Z AUTO 24012KT 9999 BKN023/// BKN030/// 11/07 Q1006 WSW (240°) 13.8mph 11°C 7°C
16/03/19 06:50 EGDY 160650Z AUTO 24014G25KT 9999 OVC024/// 11/07 Q1006 WSW (240°) 16.1mph 28.8mph 11°C 7°C
16/03/19 05:50 EGDY 160550Z AUTO 24013KT 9999 OVC020/// 11/08 Q1006 WSW (240°) 15.0mph 11°C 8°C
16/03/19 04:50 EGDY 160450Z AUTO 24014G24KT 9999 OVC020/// 11/07 Q1007 WSW (240°) 16.1mph 27.6mph 11°C 7°C
16/03/19 03:50 EGDY 160350Z AUTO 23012KT 9999 OVC018/// 11/08 Q1008 SW (230°) 13.8mph 11°C 8°C
16/03/19 02:50 EGDY 160250Z AUTO 22012KT 9999 OVC020/// 11/08 Q1009 SW (220°) 13.8mph 11°C 8°C
16/03/19 01:50 EGDY 160150Z AUTO 22010KT 9999 OVC019/// 11/08 Q1010 RERA SW (220°) 11.5mph 11°C 8°C
16/03/19 00:50 EGDY 160050Z AUTO 23010KT 9999 BKN021/// BKN060/// 11/08 Q1010 SW (230°) 11.5mph 11°C 8°C
15/03/19 23:50 EGDY 152350Z AUTO 23011KT 9999 FEW014/// BKN060/// 12/08 Q1011 SW (230°) 12.7mph 12°C 8°C
15/03/19 22:50 EGDY 152250Z AUTO 23011KT 9999 OVC012/// 12/09 Q1011 SW (230°) 12.7mph 12°C 9°C
15/03/19 21:50 EGDY 152150Z AUTO 23008KT 9999 OVC013/// 12/09 Q1012 SW (230°) 9.2mph 12°C 9°C
15/03/19 20:50 EGDY 152050Z AUTO 25013KT 9999 BKN014/// BKN022/// 12/09 Q1011 WSW (250°) 15.0mph 12°C 9°C
15/03/19 19:50 EGDY 151950Z AUTO 26015KT 9999 SCT015/// BKN023/// 12/10 Q1011 W (260°) 17.3mph 12°C 10°C
15/03/19 18:50 EGDY 151850Z AUTO 27020G30KT 9999 BKN016/// BKN023/// 12/09 Q1011 W (270°) 23.0mph 34.5mph 12°C 9°C
15/03/19 17:50 EGDY 151750Z AUTO 27020G30KT 9999 BKN016/// BKN023/// 12/10 Q1011 W (270°) 23.0mph 34.5mph 12°C 10°C
15/03/19 16:50 EGDY 151650Z AUTO 26020G32KT 9999 BKN016/// SCT024/// 13/10 Q1010 RERA W (260°) 23.0mph 36.8mph 13°C 10°C
15/03/19 15:50 EGDY 151550Z AUTO 26020KT 9999 BKN016/// BKN022/// 13/10 Q1011 W (260°) 23.0mph 13°C 10°C
15/03/19 14:50 EGDY 151450Z AUTO 26024KT 9999 BKN015/// BKN022/// 13/10 Q1011 W (260°) 27.6mph 13°C 10°C
15/03/19 13:50 EGDY 151350Z 26020G30KT 9999 -RADZ SCT012 BKN016 13/10 Q1011 GRN TEMPO 4000 RADZ SCT006 YLO1 -RA -DZ W (260°) 23.0mph 34.5mph 13°C 10°C
15/03/19 12:50 EGDY 151250Z 26021G31KT 9999 SCT014 BKN016 13/10 Q1010 GRN TEMPO 4000 RADZ SCT006 YLO1 W (260°) 24.2mph 35.7mph 13°C 10°C
15/03/19 11:50 EGDY 151150Z 26020G30KT 9999 SCT014 BKN016 13/10 Q1010 GRN NOSIG W (260°) 23.0mph 34.5mph 13°C 10°C
15/03/19 10:50 EGDY 151050Z 26020KT 9999 SCT012 BKN016 13/10 Q1010 GRN NOSIG W (260°) 23.0mph 13°C 10°C
15/03/19 09:50 EGDY 150950Z 25014KT 9999 SCT012 BKN016 13/10 Q1010 GRN NOSIG WSW (250°) 16.1mph 13°C 10°C
15/03/19 08:50 EGDY 150850Z 27019G29KT 9999 SCT014 BKN016 13/10 Q1010 GRN NOSIG W (270°) 21.9mph 33.4mph 13°C 10°C
15/03/19 07:50 EGDY 150750Z 26016G28KT 9999 -RA SCT012 BKN015 12/10 Q1010 GRN NOSIG -RA W (260°) 18.4mph 32.2mph 12°C 10°C
15/03/19 06:50 EGDY 150650Z 26017G28KT 9999 SCT014 BKN018 12/09 Q1009 GRN NOSIG W (260°) 19.6mph 32.2mph 12°C 9°C
15/03/19 05:50 EGDY 150550Z 26018G28KT 9999 FEW014 BKN018 12/09 Q1009 WHT W (260°) 20.7mph 32.2mph 12°C 9°C
15/03/19 04:50 EGDY 150450Z 26020G30KT 9999 SCT014 OVC018 12/09 Q1009 GRN W (260°) 23.0mph 34.5mph 12°C 9°C
15/03/19 03:50 EGDY 150350Z 26023G33KT 9999 FEW009 OVC014 12/09 Q1009 GRN W (260°) 26.5mph 38.0mph 12°C 9°C
15/03/19 02:50 EGDY 150250Z 26022G32KT 9999 FEW008 BKN013 12/10 Q1009 GRN W (260°) 25.3mph 36.8mph 12°C 10°C
15/03/19 01:50 EGDY 150150Z 26022KT 8000 -RA FEW008 OVC013 12/10 Q1009 GRN -RA W (260°) 25.3mph 12°C 10°C
15/03/19 00:50 EGDY 150050Z 26019KT 9999 FEW008 BKN014 12/10 Q1009 GRN W (260°) 21.9mph 12°C 10°C
14/03/19 23:50 EGDY 142350Z 26019KT 9999 FEW008 OVC012 12/10 Q1009 GRN W (260°) 21.9mph 12°C 10°C
14/03/19 22:50 EGDY 142250Z 27021G31KT 9999 FEW006 SCT008 BKN012 12/10 Q1010 GRN W (270°) 24.2mph 35.7mph 12°C 10°C
14/03/19 21:50 EGDY 142150Z 25011KT 7000 -RA FEW006 BKN008 11/10 Q1010 GRN TEMPO 4000 -RADZ SCT006 YLO1 -RA WSW (250°) 12.7mph 11°C 10°C
14/03/19 21:28 EGDY 142128Z 26010KT 7000 -RA SCT009 BKN021 11/10 Q1010 GRN TEMPO 4000 -RADZ SCT006 YLO1 -RA W (260°) 11.5mph 11°C 10°C
14/03/19 20:50 EGDY 142050Z 26012KT 9999 FEW010 BKN020 11/09 Q1010 WHT BECMG 4000 -RADZ SCT008 GRN W (260°) 13.8mph 11°C 9°C
14/03/19 19:50 EGDY 141950Z 25011KT 9999 FEW010 SCT022 BKN040 12/08 Q1010 WHT BECMG 4000 -RADZ SCT008 GRN WSW (250°) 12.7mph 12°C 8°C
14/03/19 18:50 EGDY 141850Z 27011KT 9999 FEW010 OVC040 11/07 Q1010 BLU BECMG 4000 -RADZ SCT008 GRN W (270°) 12.7mph 11°C 7°C
14/03/19 17:50 EGDY 141750Z 28014KT 9999 FEW020 SCT090 BKN200 12/06 Q1010 BLU BECMG 7000 -RA BKN015 WHT W (280°) 16.1mph 12°C 6°C
14/03/19 16:50 EGDY 141650Z 30022KT 9999 FEW020 SCT100 BKN200 12/06 Q1009 BLU NOSIG WNW (300°) 25.3mph 12°C 6°C
14/03/19 15:50 EGDY 141550Z 30022KT 9999 FEW020 BKN200 13/06 Q1008 BLU NOSIG WNW (300°) 25.3mph 13°C 6°C
14/03/19 14:50 EGDY 141450Z 30026G36KT 9999 FEW015 SCT050 BKN200 12/07 Q1008 BLU NOSIG WNW (300°) 29.9mph 41.4mph 12°C 7°C
14/03/19 13:50 EGDY 141350Z 30025KT 9999 FEW010 SCT030 BKN100 12/07 Q1008 BLU NOSIG WNW (300°) 28.8mph 12°C 7°C
14/03/19 13:18 EGDY 141318Z 29027KT 9999 FEW010 SCT030 BKN050 12/08 Q1007 BLU NOSIG WNW (290°) 31.1mph 12°C 8°C
14/03/19 12:30 EGDY 141230Z 29023KT 9999 -DZ FEW010 SCT020 BKN030 12/10 Q1007 WHT BECMG 9999 NSW BKN030 BLU -DZ WNW (290°) 26.5mph 12°C 10°C
14/03/19 11:50 EGDY 141150Z 28025KT 6000 RADZ SCT012 BKN020 12/10 Q1007 GRN BECMG 9999 NSW BKN030 BLU RA DZ W (280°) 28.8mph 12°C 10°C
14/03/19 10:50 EGDY 141050Z 27025KT 9999 SCT014 BKN020 12/10 Q1006 GRN BECMG 9999 FEW014 BKN020 WHT W (270°) 28.8mph 12°C 10°C
14/03/19 09:50 EGDY 140950Z 26021KT 5000 -RADZ SCT012 BKN020 11/10 Q1006 GRN BECMG FEW012 BKN020 WHT -RA -DZ W (260°) 24.2mph 11°C 10°C
14/03/19 08:50 EGDY 140850Z 26022G33KT 9999 -RA SCT012 SCT016 BKN035 11/09 Q1006 GRN BECMG FEW012 SCT020 WHT -RA W (260°) 25.3mph 38.0mph 11°C 9°C
14/03/19 07:50 EGDY 140750Z 26020KT 9999 RA SCT016 BKN035 10/08 Q1006 WHT TEMPO 7000 -RA SCT012 GRN RA W (260°) 23.0mph 10°C 8°C
14/03/19 06:50 EGDY 140650Z 26021G31KT 9999 -RA BKN016 OVC040 10/08 Q1007 WHT TEMPO 6000 -RA SCT012 BKN015 GRN -RA W (260°) 24.2mph 35.7mph 10°C 8°C
14/03/19 05:50 EGDY 140550Z 26016KT 6000 RA BKN016 09/08 Q1008 WHT RA W (260°) 18.4mph 9°C 8°C
14/03/19 04:50 EGDY 140450Z 26016KT 8000 -RA FEW012 OVC020 09/07 Q1009 WHT -RA W (260°) 18.4mph 9°C 7°C
14/03/19 03:50 EGDY 140350Z 25016KT 8000 -RA FEW012 BKN022 09/06 Q1010 WHT -RA WSW (250°) 18.4mph 9°C 6°C
14/03/19 02:50 EGDY 140250Z 26017KT 9000 -RA FEW012 SCT022 BKN030 09/06 Q1011 WHT -RA W (260°) 19.6mph 9°C 6°C
14/03/19 01:50 EGDY 140150Z 26013KT 9000 -RA FEW012 BKN022 09/06 Q1013 WHT -RA W (260°) 15.0mph 9°C 6°C
14/03/19 00:50 EGDY 140050Z 26013KT 9999 FEW012 SCT026 BKN045 09/05 Q1014 BLU W (260°) 15.0mph 9°C 5°C
13/03/19 23:50 EGDY 132350Z 25010KT 9999 FEW012 SCT027 OVC250 09/05 Q1015 BLU BECMG 7000 -RA SCT020 WHT WSW (250°) 11.5mph 9°C 5°C
13/03/19 22:50 EGDY 132250Z 25011KT 9999 FEW014 SCT028 BKN110 08/05 Q1015 BLU BECMG 7000 -RA SCT020 WHT WSW (250°) 12.7mph 8°C 5°C
13/03/19 21:50 EGDY 132150Z 26012KT 9999 FEW014 SCT028 BKN110 08/04 Q1016 BLU BECMG 7000 -RA SCT020 WHT W (260°) 13.8mph 8°C 4°C
13/03/19 20:50 EGDY 132050Z 26011KT 9999 FEW014 SCT030 BKN100 08/04 Q1016 BLU BECMG 7000 -RA SCT020 WHT W (260°) 12.7mph 8°C 4°C
13/03/19 19:50 EGDY 131950Z 28015KT 9999 FEW014 SCT045 OVC250 08/04 Q1016 BLU BECMG 7000 -RA SCT020 WHT W (280°) 17.3mph 8°C 4°C
13/03/19 18:50 EGDY 131850Z 27011KT 9999 FEW014 SCT045 OVC230 08/03 Q1017 BLU BECMG 7000 -RA SCT020 WHT W (270°) 12.7mph 8°C 3°C
13/03/19 17:50 EGDY 131750Z 29015KT CAVOK 09/03 Q1016 BLU NOSIG WNW (290°) 17.3mph 9°C 3°C
13/03/19 16:50 EGDY 131650Z 29020KT 9999 FEW030 SCT050 BKN200 10/04 Q1015 BLU NOSIG WNW (290°) 23.0mph 10°C 4°C
13/03/19 15:50 EGDY 131550Z 29024KT 9999 FEW030 SCT050 BKN200 10/03 Q1015 BLU NOSIG WNW (290°) 27.6mph 10°C 3°C
13/03/19 14:50 EGDY 131450Z 29026KT 9999 FEW030 SCT050 BKN200 11/03 Q1014 BLU NOSIG WNW (290°) 29.9mph 11°C 3°C
13/03/19 13:50 EGDY 131350Z 30029G43KT 9999 SCT030 BKN050 BKN200 11/02 Q1014 BLU NOSIG WNW (300°) 33.4mph 49.5mph 11°C 2°C
13/03/19 12:50 EGDY 131250Z 29034G44KT 9999 FEW025 SCT030 BKN050 10/02 Q1013 BLU NOSIG WNW (290°) 39.1mph 50.6mph 10°C 2°C
13/03/19 11:50 EGDY 131150Z 29033G44KT 9999 FEW020 SCT030 10/03 Q1013 BLU NOSIG WNW (290°) 38.0mph 50.6mph 10°C 3°C
13/03/19 10:50 EGDY 131050Z 29030G41KT 9999 FEW025 SCT050 10/03 Q1012 BLU NOSIG WNW (290°) 34.5mph 47.2mph 10°C 3°C
13/03/19 09:50 EGDY 130950Z 28025G35KT 9999 FEW025 SCT050 09/02 Q1012 BLU NOSIG W (280°) 28.8mph 40.3mph 9°C 2°C
13/03/19 08:50 EGDY 130850Z 28025KT 9999 FEW030 SCT050 09/03 Q1010 BLU NOSIG W (280°) 28.8mph 9°C 3°C
13/03/19 07:50 EGDY 130750Z 28027KT 9999 FEW030 SCT050 08/03 Q1009 BLU NOSIG W (280°) 31.1mph 8°C 3°C
13/03/19 06:50 EGDY 130650Z 27025KT 9999 SCT030 BKN050 08/03 Q1009 BLU NOSIG W (270°) 28.8mph 8°C 3°C